createdAt,value
2019-03-16T00:01:16.888Z,9.80
2019-03-16T00:06:20.289Z,9.80
2019-03-16T00:11:23.671Z,9.80
2019-03-16T00:16:27.052Z,9.80
2019-03-16T00:21:30.435Z,9.80
2019-03-16T00:26:33.820Z,9.80
2019-03-16T00:31:37.207Z,9.80
2019-03-16T00:36:40.599Z,9.80
2019-03-16T00:41:43.983Z,9.80
2019-03-16T00:46:47.359Z,9.80
2019-03-16T00:51:50.739Z,9.80
2019-03-16T00:56:54.134Z,9.80
2019-03-16T01:01:57.523Z,9.80
2019-03-16T01:07:00.977Z,9.80
2019-03-16T01:12:04.355Z,9.80
2019-03-16T01:17:07.744Z,9.80
2019-03-16T01:22:11.148Z,9.80
2019-03-16T01:27:14.624Z,9.80
2019-03-16T01:32:17.989Z,9.80
2019-03-16T01:37:21.383Z,9.80
2019-03-16T01:42:24.759Z,9.80
2019-03-16T01:47:28.150Z,9.80
2019-03-16T01:52:31.557Z,9.80
2019-03-16T01:57:34.952Z,9.80
2019-03-16T02:02:38.347Z,9.80
2019-03-16T02:07:41.720Z,9.80
2019-03-16T02:12:45.112Z,9.80
2019-03-16T02:17:48.503Z,9.80
2019-03-16T02:22:51.887Z,9.80
2019-03-16T02:27:55.275Z,9.80
2019-03-16T02:33:11.733Z,9.80
2019-03-16T02:38:03.775Z,9.80
2019-03-16T02:43:07.173Z,9.80
2019-03-16T02:48:10.563Z,9.80
2019-03-16T02:53:13.951Z,9.80
2019-03-16T02:58:17.325Z,9.80
2019-03-16T03:03:29.220Z,9.80
2019-03-16T03:08:25.832Z,9.80
2019-03-16T03:13:29.216Z,9.80
2019-03-16T03:18:32.593Z,9.80
2019-03-16T03:23:35.978Z,9.80
2019-03-16T03:28:39.366Z,9.80
2019-03-16T03:33:58.710Z,9.80
2019-03-16T03:38:47.873Z,9.80
2019-03-16T03:43:51.249Z,9.80
2019-03-16T03:48:54.637Z,9.80
2019-03-16T03:53:58.033Z,9.70
2019-03-16T03:59:01.407Z,9.80
2019-03-16T04:04:15.212Z,9.70
2019-03-16T04:09:10.089Z,9.80
2019-03-16T04:14:13.477Z,9.70
2019-03-16T04:19:16.902Z,9.70
2019-03-16T04:24:20.332Z,9.70
2019-03-16T04:29:23.691Z,9.70
2019-03-16T04:34:29.625Z,9.70
2019-03-16T04:39:32.195Z,9.70
2019-03-16T04:44:35.592Z,9.70
2019-03-16T04:49:38.971Z,9.70
2019-03-16T04:54:42.352Z,9.60
2019-03-16T04:59:45.722Z,9.60
2019-03-16T05:04:49.154Z,9.60
2019-03-16T05:09:52.520Z,9.60
2019-03-16T05:14:55.907Z,9.60
2019-03-16T05:19:59.296Z,9.60
2019-03-16T05:25:02.712Z,9.60
2019-03-16T05:30:09.175Z,9.60
2019-03-16T05:35:12.632Z,9.60
2019-03-16T05:40:16.016Z,9.50
2019-03-16T05:45:19.399Z,9.50
2019-03-16T05:50:22.784Z,9.50
2019-03-16T05:55:26.166Z,9.50
2019-03-16T06:00:29.548Z,9.50
2019-03-16T06:05:32.936Z,9.50
2019-03-16T06:10:36.322Z,9.50
2019-03-16T06:15:39.708Z,9.50
2019-03-16T06:20:43.091Z,9.50
2019-03-16T06:25:46.969Z,9.50
2019-03-16T06:30:50.382Z,9.50
2019-03-16T06:35:53.764Z,9.50
2019-03-16T06:40:57.160Z,9.50
2019-03-16T06:46:00.607Z,9.50
2019-03-16T06:51:03.995Z,9.50
2019-03-16T06:56:07.368Z,9.50
2019-03-16T07:01:10.760Z,9.50
2019-03-16T07:06:14.149Z,9.50
2019-03-16T07:11:17.520Z,9.50
2019-03-16T07:16:20.890Z,9.50
2019-03-16T07:21:24.278Z,9.50
2019-03-16T07:26:27.659Z,9.50
2019-03-16T07:31:31.040Z,9.50
2019-03-16T07:36:36.006Z,9.50
2019-03-16T07:41:39.675Z,9.50
2019-03-16T07:46:43.068Z,9.50
2019-03-16T07:51:46.447Z,9.60
2019-03-16T07:56:49.840Z,9.60
2019-03-16T08:01:53.223Z,9.60
2019-03-16T08:06:56.661Z,9.60
2019-03-16T08:12:00.059Z,9.60
2019-03-16T08:17:03.436Z,9.70
2019-03-16T08:22:06.818Z,9.70
2019-03-16T08:27:10.192Z,9.70
2019-03-16T08:32:13.571Z,9.70
2019-03-16T08:37:16.951Z,9.70
2019-03-16T08:42:20.335Z,9.80
2019-03-16T08:47:23.788Z,9.80
2019-03-16T08:52:27.176Z,9.80
2019-03-16T08:57:30.555Z,9.80
2019-03-16T09:02:33.955Z,9.80
2019-03-16T09:07:37.420Z,9.80
2019-03-16T09:12:40.792Z,9.90
2019-03-16T09:17:44.167Z,9.90
2019-03-16T09:22:47.555Z,9.90
2019-03-16T09:27:50.927Z,9.90
2019-03-16T09:32:54.387Z,9.90
2019-03-16T09:37:57.781Z,9.90
2019-03-16T09:43:01.160Z,9.90
2019-03-16T09:48:04.559Z,9.90
2019-03-16T09:53:07.945Z,9.90
2019-03-16T09:58:11.332Z,9.90
2019-03-16T10:03:14.711Z,9.90
2019-03-16T10:08:19.393Z,10.00
2019-03-16T10:13:22.863Z,10.00
2019-03-16T10:18:26.242Z,10.00
2019-03-16T10:23:29.637Z,10.10
2019-03-16T10:28:43.149Z,10.10
2019-03-16T10:33:38.131Z,10.20
2019-03-16T10:38:41.511Z,10.30
2019-03-16T10:43:44.897Z,10.30
2019-03-16T10:48:48.303Z,10.40
2019-03-16T10:53:51.684Z,10.50
2019-03-16T10:58:56.796Z,10.50
2019-03-16T11:04:00.179Z,10.50
2019-03-16T11:09:05.435Z,10.50
2019-03-16T11:14:08.823Z,10.60
2019-03-16T11:19:12.218Z,10.60
2019-03-16T11:24:15.603Z,10.60
2019-03-16T11:29:19.000Z,10.60
2019-03-16T11:34:22.399Z,10.60
2019-03-16T11:39:25.788Z,10.60
2019-03-16T11:44:29.176Z,10.50
2019-03-16T11:49:32.555Z,10.60
2019-03-16T11:54:35.952Z,10.60
2019-03-16T11:59:39.327Z,10.80
2019-03-16T12:04:42.715Z,10.90
2019-03-16T12:09:46.109Z,11.00
2019-03-16T12:14:49.503Z,11.00
2019-03-16T12:19:52.892Z,11.10
2019-03-16T12:24:56.291Z,11.10
2019-03-16T12:29:59.679Z,11.10
2019-03-16T12:35:03.640Z,11.10
2019-03-16T12:40:11.621Z,11.30
2019-03-16T12:45:20.221Z,11.40
2019-03-16T12:50:22.436Z,11.60
2019-03-16T12:55:25.923Z,11.90
2019-03-16T13:00:30.956Z,12.30
2019-03-16T13:05:34.337Z,12.50
2019-03-16T13:10:37.737Z,12.80
2019-03-16T13:15:41.121Z,13.00
2019-03-16T13:20:44.499Z,13.20
2019-03-16T13:25:47.961Z,13.30
2019-03-16T13:30:51.331Z,13.30
2019-03-16T13:35:54.724Z,13.40
2019-03-16T13:40:58.131Z,13.40
2019-03-16T13:46:01.503Z,13.40
2019-03-16T13:51:04.896Z,13.40
2019-03-16T13:56:08.271Z,13.50
2019-03-16T14:01:11.677Z,13.50
2019-03-16T14:06:15.043Z,13.60
2019-03-16T14:11:18.432Z,13.60
2019-03-16T14:16:21.816Z,13.70
2019-03-16T14:21:25.372Z,13.80
2019-03-16T14:26:28.788Z,13.90
2019-03-16T14:31:32.142Z,14.00
2019-03-16T14:36:35.535Z,14.00
2019-03-16T14:41:38.923Z,14.10
2019-03-16T14:46:42.308Z,14.10
2019-03-16T14:51:45.701Z,14.10
2019-03-16T14:56:49.091Z,14.10
2019-03-16T15:01:52.471Z,14.10
2019-03-16T15:06:55.864Z,14.10
2019-03-16T15:11:59.252Z,14.20
2019-03-16T15:17:02.669Z,14.20
2019-03-16T15:22:06.041Z,14.20
2019-03-16T15:27:09.447Z,14.20
2019-03-16T15:32:12.836Z,14.10
2019-03-16T15:37:16.234Z,14.10
2019-03-16T15:42:22.631Z,14.00
2019-03-16T15:47:24.717Z,14.00
2019-03-16T15:52:28.103Z,14.00
2019-03-16T15:57:31.500Z,13.90
2019-03-16T16:02:34.880Z,13.90
2019-03-16T16:07:38.282Z,13.80
2019-03-16T16:12:41.686Z,13.80
2019-03-16T16:17:45.058Z,13.70
2019-03-16T16:22:48.455Z,13.70
2019-03-16T16:27:51.847Z,13.60
2019-03-16T16:32:55.232Z,13.50
2019-03-16T16:37:58.624Z,13.50
2019-03-16T16:43:02.035Z,13.40
2019-03-16T16:48:05.415Z,13.40
2019-03-16T16:53:08.799Z,13.30
2019-03-16T16:58:12.186Z,13.20
2019-03-16T17:03:15.591Z,13.10
2019-03-16T17:08:18.968Z,13.00
2019-03-16T17:13:22.355Z,12.90
2019-03-16T17:18:25.763Z,12.70
2019-03-16T17:23:29.143Z,12.60
2019-03-16T17:28:32.543Z,12.50
2019-03-16T17:33:35.936Z,12.40
2019-03-16T17:38:39.336Z,12.30
2019-03-16T17:43:42.727Z,12.10
2019-03-16T17:48:46.102Z,12.00
2019-03-16T17:53:49.525Z,11.80
2019-03-16T17:58:52.930Z,11.70
2019-03-16T18:03:56.341Z,11.60
2019-03-16T18:09:01.917Z,11.40
2019-03-16T18:14:04.956Z,11.30
2019-03-16T18:19:08.343Z,11.20
2019-03-16T18:24:11.761Z,11.10
2019-03-16T18:29:15.163Z,11.00
2019-03-16T18:34:18.618Z,10.80
2019-03-16T18:39:22.047Z,10.70
2019-03-16T18:44:25.479Z,10.60
2019-03-16T18:49:28.917Z,10.50
2019-03-16T18:54:32.349Z,10.40
2019-03-16T18:59:35.785Z,10.30
2019-03-16T19:04:39.215Z,10.10
2019-03-16T19:09:42.599Z,10.00
2019-03-16T19:14:45.999Z,9.90
2019-03-16T19:19:49.385Z,9.80
2019-03-16T19:24:52.779Z,9.70
2019-03-16T19:29:56.166Z,9.60
2019-03-16T19:34:59.567Z,9.50
2019-03-16T19:40:02.951Z,9.40
2019-03-16T19:45:08.367Z,9.30
2019-03-16T19:50:13.395Z,9.20
2019-03-16T19:55:16.792Z,9.10
2019-03-16T20:00:20.236Z,9.00
2019-03-16T20:05:23.615Z,8.90
2019-03-16T20:10:27.029Z,8.70
2019-03-16T20:15:30.468Z,8.70
2019-03-16T20:20:33.849Z,8.60
2019-03-16T20:25:37.241Z,8.50
2019-03-16T20:30:40.610Z,8.40
2019-03-16T20:35:44.003Z,8.30
2019-03-16T20:40:49.811Z,8.20
2019-03-16T20:45:52.495Z,8.10
2019-03-16T20:50:55.878Z,8.00
2019-03-16T20:55:59.279Z,7.90
2019-03-16T21:01:02.743Z,7.80
2019-03-16T21:06:06.150Z,7.70
2019-03-16T21:11:09.632Z,7.60
2019-03-16T21:16:13.020Z,7.50
2019-03-16T21:21:17.283Z,7.40
2019-03-16T21:26:20.663Z,7.30
2019-03-16T21:31:24.051Z,7.20
2019-03-16T21:36:27.463Z,7.10
2019-03-16T21:41:30.847Z,7.10
2019-03-16T21:46:34.231Z,7.00
2019-03-16T21:51:37.607Z,6.90
2019-03-16T21:56:40.997Z,6.80
2019-03-16T22:01:44.388Z,6.70
2019-03-16T22:06:47.772Z,6.70
2019-03-16T22:11:51.160Z,6.60
2019-03-16T22:16:54.544Z,6.50
2019-03-16T22:21:57.929Z,6.40
2019-03-16T22:27:01.316Z,6.30
2019-03-16T22:32:04.707Z,6.30
2019-03-16T22:37:08.092Z,6.20
2019-03-16T22:42:11.492Z,6.10
2019-03-16T22:47:14.887Z,6.00
2019-03-16T22:52:18.264Z,6.00
2019-03-16T22:57:21.656Z,5.90
2019-03-16T23:02:25.043Z,5.80
2019-03-16T23:07:28.428Z,5.70
2019-03-16T23:12:31.807Z,5.70
2019-03-16T23:17:35.190Z,5.60
2019-03-16T23:22:38.590Z,5.50
2019-03-16T23:27:41.980Z,5.50
2019-03-16T23:32:45.378Z,5.40
2019-03-16T23:37:48.760Z,5.30
2019-03-16T23:42:52.146Z,5.30
2019-03-16T23:47:55.555Z,5.20
2019-03-16T23:52:58.961Z,5.20
2019-03-16T23:58:02.351Z,5.10
